sensor_id;sensor_type;location;lat;lon;timestamp;temperature;humidity
18073;DHT22;9161;47.348;9.648;2023-05-17T00:02:30;9.20;99.90
18073;DHT22;9161;47.348;9.648;2023-05-17T00:07:32;9.20;99.90
18073;DHT22;9161;47.348;9.648;2023-05-17T00:12:34;9.20;99.90
18073;DHT22;9161;47.348;9.648;2023-05-17T00:17:38;9.20;99.90
18073;DHT22;9161;47.348;9.648;2023-05-17T00:22:40;9.20;99.90
18073;DHT22;9161;47.348;9.648;2023-05-17T00:27:45;9.10;99.90
18073;DHT22;9161;47.348;9.648;2023-05-17T00:32:48;9.10;99.90
18073;DHT22;9161;47.348;9.648;2023-05-17T00:37:51;9.10;99.90
18073;DHT22;9161;47.348;9.648;2023-05-17T00:42:53;9.10;99.90
18073;DHT22;9161;47.348;9.648;2023-05-17T00:47:56;9.00;99.90
18073;DHT22;9161;47.348;9.648;2023-05-17T00:53:00;9.00;99.90
18073;DHT22;9161;47.348;9.648;2023-05-17T00:58:02;8.90;99.90
18073;DHT22;9161;47.348;9.648;2023-05-17T01:03:05;8.90;99.90
18073;DHT22;9161;47.348;9.648;2023-05-17T01:08:07;8.90;99.90
18073;DHT22;9161;47.348;9.648;2023-05-17T01:13:26;8.90;99.90
18073;DHT22;9161;47.348;9.648;2023-05-17T01:18:38;8.80;99.90
18073;DHT22;9161;47.348;9.648;2023-05-17T01:23:50;8.80;99.90
18073;DHT22;9161;47.348;9.648;2023-05-17T01:28:59;8.80;99.90
18073;DHT22;9161;47.348;9.648;2023-05-17T01:34:04;8.80;99.90
18073;DHT22;9161;47.348;9.648;2023-05-17T01:39:07;8.80;99.90
18073;DHT22;9161;47.348;9.648;2023-05-17T01:44:16;8.70;99.90
18073;DHT22;9161;47.348;9.648;2023-05-17T01:49:22;8.60;99.90
18073;DHT22;9161;47.348;9.648;2023-05-17T01:54:30;8.60;99.90
18073;DHT22;9161;47.348;9.648;2023-05-17T01:59:36;8.50;99.90
18073;DHT22;9161;47.348;9.648;2023-05-17T02:04:38;8.50;99.90
18073;DHT22;9161;47.348;9.648;2023-05-17T02:09:40;8.50;99.90
18073;DHT22;9161;47.348;9.648;2023-05-17T02:14:43;8.40;99.90
18073;DHT22;9161;47.348;9.648;2023-05-17T02:19:46;8.40;99.90
18073;DHT22;9161;47.348;9.648;2023-05-17T02:24:48;8.30;99.90
18073;DHT22;9161;47.348;9.648;2023-05-17T02:29:51;8.30;99.90
18073;DHT22;9161;47.348;9.648;2023-05-17T02:34:53;8.30;99.90
18073;DHT22;9161;47.348;9.648;2023-05-17T02:39:55;8.30;99.90
18073;DHT22;9161;47.348;9.648;2023-05-17T02:44:59;8.30;99.90
18073;DHT22;9161;47.348;9.648;2023-05-17T02:50:01;8.40;99.90
18073;DHT22;9161;47.348;9.648;2023-05-17T02:55:03;8.30;99.90
18073;DHT22;9161;47.348;9.648;2023-05-17T03:00:08;8.30;99.90
18073;DHT22;9161;47.348;9.648;2023-05-17T03:05:10;8.30;99.90
18073;DHT22;9161;47.348;9.648;2023-05-17T03:10:12;8.20;99.90
18073;DHT22;9161;47.348;9.648;2023-05-17T03:15:16;8.20;99.90
18073;DHT22;9161;47.348;9.648;2023-05-17T03:20:18;8.20;99.90
18073;DHT22;9161;47.348;9.648;2023-05-17T03:25:20;8.10;99.90
18073;DHT22;9161;47.348;9.648;2023-05-17T03:30:23;8.10;99.90
18073;DHT22;9161;47.348;9.648;2023-05-17T03:35:25;8.10;99.90
18073;DHT22;9161;47.348;9.648;2023-05-17T03:40:28;8.10;99.90
18073;DHT22;9161;47.348;9.648;2023-05-17T03:45:31;8.10;99.90
18073;DHT22;9161;47.348;9.648;2023-05-17T03:50:33;8.00;99.90
18073;DHT22;9161;47.348;9.648;2023-05-17T03:55:36;8.00;99.90
18073;DHT22;9161;47.348;9.648;2023-05-17T04:00:39;8.00;99.90
18073;DHT22;9161;47.348;9.648;2023-05-17T04:05:41;8.00;99.90
18073;DHT22;9161;47.348;9.648;2023-05-17T04:10:45;8.00;99.90
18073;DHT22;9161;47.348;9.648;2023-05-17T04:15:48;8.00;99.90
18073;DHT22;9161;47.348;9.648;2023-05-17T04:20:50;8.00;99.90
18073;DHT22;9161;47.348;9.648;2023-05-17T04:25:52;8.00;99.90
18073;DHT22;9161;47.348;9.648;2023-05-17T04:30:55;8.00;99.90
18073;DHT22;9161;47.348;9.648;2023-05-17T04:35:58;8.10;99.90
18073;DHT22;9161;47.348;9.648;2023-05-17T04:41:00;8.10;99.90
18073;DHT22;9161;47.348;9.648;2023-05-17T04:46:05;8.10;99.90
18073;DHT22;9161;47.348;9.648;2023-05-17T04:51:08;8.20;99.90
18073;DHT22;9161;47.348;9.648;2023-05-17T04:56:10;8.10;99.90
18073;DHT22;9161;47.348;9.648;2023-05-17T05:01:13;8.20;99.90
18073;DHT22;9161;47.348;9.648;2023-05-17T05:06:15;8.30;99.90
18073;DHT22;9161;47.348;9.648;2023-05-17T05:11:18;8.30;99.90
18073;DHT22;9161;47.348;9.648;2023-05-17T05:16:21;8.40;99.90
18073;DHT22;9161;47.348;9.648;2023-05-17T05:21:23;8.60;99.90
18073;DHT22;9161;47.348;9.648;2023-05-17T05:26:26;8.70;99.90
18073;DHT22;9161;47.348;9.648;2023-05-17T05:31:29;8.80;99.90
18073;DHT22;9161;47.348;9.648;2023-05-17T05:36:32;8.90;99.90
18073;DHT22;9161;47.348;9.648;2023-05-17T05:41:34;9.00;99.90
18073;DHT22;9161;47.348;9.648;2023-05-17T05:46:37;9.10;99.90
18073;DHT22;9161;47.348;9.648;2023-05-17T05:51:42;9.30;99.90
18073;DHT22;9161;47.348;9.648;2023-05-17T05:56:44;9.40;99.90
18073;DHT22;9161;47.348;9.648;2023-05-17T06:01:48;9.50;99.90
18073;DHT22;9161;47.348;9.648;2023-05-17T06:06:50;9.40;99.90
18073;DHT22;9161;47.348;9.648;2023-05-17T06:11:52;9.50;99.90
18073;DHT22;9161;47.348;9.648;2023-05-17T06:16:56;9.70;99.90
18073;DHT22;9161;47.348;9.648;2023-05-17T06:21:58;9.60;99.90
18073;DHT22;9161;47.348;9.648;2023-05-17T06:27:00;9.80;99.90
18073;DHT22;9161;47.348;9.648;2023-05-17T06:32:05;10.00;99.90
18073;DHT22;9161;47.348;9.648;2023-05-17T06:37:07;10.00;99.90
18073;DHT22;9161;47.348;9.648;2023-05-17T06:42:09;10.00;99.90
18073;DHT22;9161;47.348;9.648;2023-05-17T06:47:13;10.10;99.90
18073;DHT22;9161;47.348;9.648;2023-05-17T06:52:15;10.20;99.90
18073;DHT22;9161;47.348;9.648;2023-05-17T06:57:17;10.40;99.90
18073;DHT22;9161;47.348;9.648;2023-05-17T07:02:21;10.70;99.90
18073;DHT22;9161;47.348;9.648;2023-05-17T07:07:24;10.70;99.90
18073;DHT22;9161;47.348;9.648;2023-05-17T07:12:26;10.80;99.90
18073;DHT22;9161;47.348;9.648;2023-05-17T07:17:30;11.10;99.90
18073;DHT22;9161;47.348;9.648;2023-05-17T07:22:32;11.10;99.90
18073;DHT22;9161;47.348;9.648;2023-05-17T07:27:34;11.20;99.90
18073;DHT22;9161;47.348;9.648;2023-05-17T07:32:38;11.20;99.90
18073;DHT22;9161;47.348;9.648;2023-05-17T07:37:42;11.40;99.90
18073;DHT22;9161;47.348;9.648;2023-05-17T07:42:45;11.50;99.90
18073;DHT22;9161;47.348;9.648;2023-05-17T07:47:49;11.40;99.90
18073;DHT22;9161;47.348;9.648;2023-05-17T07:52:51;11.60;99.90
18073;DHT22;9161;47.348;9.648;2023-05-17T07:57:54;11.60;99.90
18073;DHT22;9161;47.348;9.648;2023-05-17T08:02:57;11.60;99.90
18073;DHT22;9161;47.348;9.648;2023-05-17T08:07:59;11.70;99.90
18073;DHT22;9161;47.348;9.648;2023-05-17T08:13:02;11.90;99.90
18073;DHT22;9161;47.348;9.648;2023-05-17T08:18:05;11.90;99.90
18073;DHT22;9161;47.348;9.648;2023-05-17T08:23:07;11.90;99.90
18073;DHT22;9161;47.348;9.648;2023-05-17T08:28:10;12.00;99.90
18073;DHT22;9161;47.348;9.648;2023-05-17T08:33:13;11.60;99.90
18073;DHT22;9161;47.348;9.648;2023-05-17T08:38:15;11.70;99.90
18073;DHT22;9161;47.348;9.648;2023-05-17T08:43:22;12.00;99.90
18073;DHT22;9161;47.348;9.648;2023-05-17T08:48:29;12.20;99.90
18073;DHT22;9161;47.348;9.648;2023-05-17T08:53:31;12.50;99.90
18073;DHT22;9161;47.348;9.648;2023-05-17T08:58:35;13.00;99.90
18073;DHT22;9161;47.348;9.648;2023-05-17T09:03:58;12.90;99.90
18073;DHT22;9161;47.348;9.648;2023-05-17T09:09:01;13.10;99.90
18073;DHT22;9161;47.348;9.648;2023-05-17T09:14:05;13.80;99.90
18073;DHT22;9161;47.348;9.648;2023-05-17T09:19:14;13.40;99.90
18073;DHT22;9161;47.348;9.648;2023-05-17T09:24:18;13.10;99.90
18073;DHT22;9161;47.348;9.648;2023-05-17T09:29:22;13.70;99.90
18073;DHT22;9161;47.348;9.648;2023-05-17T09:34:26;13.80;99.90
18073;DHT22;9161;47.348;9.648;2023-05-17T09:39:28;14.20;99.90
18073;DHT22;9161;47.348;9.648;2023-05-17T09:44:44;14.10;99.90
18073;DHT22;9161;47.348;9.648;2023-05-17T09:49:48;14.40;99.90
18073;DHT22;9161;47.348;9.648;2023-05-17T09:54:51;14.30;99.90
18073;DHT22;9161;47.348;9.648;2023-05-17T09:59:54;14.40;99.90
18073;DHT22;9161;47.348;9.648;2023-05-17T10:05:00;14.50;99.90
18073;DHT22;9161;47.348;9.648;2023-05-17T10:10:06;15.00;99.90
18073;DHT22;9161;47.348;9.648;2023-05-17T10:15:10;15.70;99.90
18073;DHT22;9161;47.348;9.648;2023-05-17T10:20:17;16.60;99.90
18073;DHT22;9161;47.348;9.648;2023-05-17T10:25:21;16.40;99.90
18073;DHT22;9161;47.348;9.648;2023-05-17T10:30:24;15.70;99.90
18073;DHT22;9161;47.348;9.648;2023-05-17T10:35:29;15.70;99.90
18073;DHT22;9161;47.348;9.648;2023-05-17T10:40:32;15.60;99.90
18073;DHT22;9161;47.348;9.648;2023-05-17T10:45:36;16.20;99.90
18073;DHT22;9161;47.348;9.648;2023-05-17T10:50:40;16.00;99.90
18073;DHT22;9161;47.348;9.648;2023-05-17T10:55:59;16.10;99.90
18073;DHT22;9161;47.348;9.648;2023-05-17T11:01:02;15.50;99.90
18073;DHT22;9161;47.348;9.648;2023-05-17T11:06:16;15.00;99.90
18073;DHT22;9161;47.348;9.648;2023-05-17T11:11:25;14.70;99.90
18073;DHT22;9161;47.348;9.648;2023-05-17T11:16:34;14.00;99.90
18073;DHT22;9161;47.348;9.648;2023-05-17T11:21:47;13.70;99.90
18073;DHT22;9161;47.348;9.648;2023-05-17T11:26:50;14.10;99.90
18073;DHT22;9161;47.348;9.648;2023-05-17T11:31:52;14.20;99.90
18073;DHT22;9161;47.348;9.648;2023-05-17T11:36:56;14.10;99.90
18073;DHT22;9161;47.348;9.648;2023-05-17T11:41:58;15.10;99.90
18073;DHT22;9161;47.348;9.648;2023-05-17T11:47:01;16.10;99.90
18073;DHT22;9161;47.348;9.648;2023-05-17T11:52:06;16.50;99.90
18073;DHT22;9161;47.348;9.648;2023-05-17T11:57:10;15.40;99.90
18073;DHT22;9161;47.348;9.648;2023-05-17T12:02:27;15.70;99.90
18073;DHT22;9161;47.348;9.648;2023-05-17T12:07:30;16.10;99.90
18073;DHT22;9161;47.348;9.648;2023-05-17T12:12:35;16.60;99.90
18073;DHT22;9161;47.348;9.648;2023-05-17T12:17:40;16.60;99.90
18073;DHT22;9161;47.348;9.648;2023-05-17T12:22:53;16.70;99.90
18073;DHT22;9161;47.348;9.648;2023-05-17T12:28:14;16.00;99.90
18073;DHT22;9161;47.348;9.648;2023-05-17T12:33:16;15.30;99.90
18073;DHT22;9161;47.348;9.648;2023-05-17T12:38:20;14.40;99.90
18073;DHT22;9161;47.348;9.648;2023-05-17T12:43:23;14.20;99.90
18073;DHT22;9161;47.348;9.648;2023-05-17T12:48:25;14.00;99.90
18073;DHT22;9161;47.348;9.648;2023-05-17T12:53:35;14.10;99.90
18073;DHT22;9161;47.348;9.648;2023-05-17T12:58:38;15.20;99.90
18073;DHT22;9161;47.348;9.648;2023-05-17T13:03:40;16.30;99.90
18073;DHT22;9161;47.348;9.648;2023-05-17T13:08:57;18.30;99.90
18073;DHT22;9161;47.348;9.648;2023-05-17T13:13:59;16.90;99.90
18073;DHT22;9161;47.348;9.648;2023-05-17T13:19:11;15.70;99.90
18073;DHT22;9161;47.348;9.648;2023-05-17T13:24:15;15.40;99.90
18073;DHT22;9161;47.348;9.648;2023-05-17T13:29:17;15.90;99.90
18073;DHT22;9161;47.348;9.648;2023-05-17T13:34:35;15.70;99.90
18073;DHT22;9161;47.348;9.648;2023-05-17T13:39:38;15.80;99.90
18073;DHT22;9161;47.348;9.648;2023-05-17T13:44:43;15.60;99.90
18073;DHT22;9161;47.348;9.648;2023-05-17T13:49:45;15.30;99.90
18073;DHT22;9161;47.348;9.648;2023-05-17T13:54:49;15.00;99.90
18073;DHT22;9161;47.348;9.648;2023-05-17T13:59:51;14.90;99.90
18073;DHT22;9161;47.348;9.648;2023-05-17T14:04:53;15.10;99.90
18073;DHT22;9161;47.348;9.648;2023-05-17T14:09:57;15.40;99.90
18073;DHT22;9161;47.348;9.648;2023-05-17T14:15:00;15.70;99.90
18073;DHT22;9161;47.348;9.648;2023-05-17T14:20:03;15.90;99.90
18073;DHT22;9161;47.348;9.648;2023-05-17T14:25:08;16.00;99.90
18073;DHT22;9161;47.348;9.648;2023-05-17T14:30:12;15.60;99.90
18073;DHT22;9161;47.348;9.648;2023-05-17T14:35:14;15.80;99.90
18073;DHT22;9161;47.348;9.648;2023-05-17T14:40:21;16.30;99.90
18073;DHT22;9161;47.348;9.648;2023-05-17T14:45:23;16.70;99.90
18073;DHT22;9161;47.348;9.648;2023-05-17T14:50:25;17.60;99.90
18073;DHT22;9161;47.348;9.648;2023-05-17T14:55:29;18.00;99.90
18073;DHT22;9161;47.348;9.648;2023-05-17T15:00:31;18.90;99.90
18073;DHT22;9161;47.348;9.648;2023-05-17T15:05:34;17.90;99.90
18073;DHT22;9161;47.348;9.648;2023-05-17T15:10:41;18.60;99.90
18073;DHT22;9161;47.348;9.648;2023-05-17T15:15:43;18.70;99.90
18073;DHT22;9161;47.348;9.648;2023-05-17T15:20:46;18.00;99.90
18073;DHT22;9161;47.348;9.648;2023-05-17T15:25:50;17.30;99.90
18073;DHT22;9161;47.348;9.648;2023-05-17T15:31:00;16.80;99.90
18073;DHT22;9161;47.348;9.648;2023-05-17T15:36:03;16.80;99.90
18073;DHT22;9161;47.348;9.648;2023-05-17T15:41:10;16.60;99.90
18073;DHT22;9161;47.348;9.648;2023-05-17T15:46:12;16.40;99.90
18073;DHT22;9161;47.348;9.648;2023-05-17T15:51:14;16.20;99.90
18073;DHT22;9161;47.348;9.648;2023-05-17T15:56:19;16.00;99.90
18073;DHT22;9161;47.348;9.648;2023-05-17T16:01:22;15.40;99.90
18073;DHT22;9161;47.348;9.648;2023-05-17T16:06:25;15.30;99.90
18073;DHT22;9161;47.348;9.648;2023-05-17T16:11:29;15.20;99.90
18073;DHT22;9161;47.348;9.648;2023-05-17T16:16:32;15.20;99.90
18073;DHT22;9161;47.348;9.648;2023-05-17T16:21:35;14.80;99.90
18073;DHT22;9161;47.348;9.648;2023-05-17T16:26:38;14.60;99.90
18073;DHT22;9161;47.348;9.648;2023-05-17T16:31:41;14.40;99.90
18073;DHT22;9161;47.348;9.648;2023-05-17T16:36:44;14.30;99.90
18073;DHT22;9161;47.348;9.648;2023-05-17T16:41:49;14.20;99.90
18073;DHT22;9161;47.348;9.648;2023-05-17T16:46:53;14.10;99.90
18073;DHT22;9161;47.348;9.648;2023-05-17T16:51:55;14.00;99.90
18073;DHT22;9161;47.348;9.648;2023-05-17T16:57:00;13.80;99.90
18073;DHT22;9161;47.348;9.648;2023-05-17T17:02:08;13.70;99.90
18073;DHT22;9161;47.348;9.648;2023-05-17T17:07:11;13.60;99.90
18073;DHT22;9161;47.348;9.648;2023-05-17T17:12:15;13.30;99.90
18073;DHT22;9161;47.348;9.648;2023-05-17T17:17:25;13.20;99.90
18073;DHT22;9161;47.348;9.648;2023-05-17T17:22:28;13.20;99.90
18073;DHT22;9161;47.348;9.648;2023-05-17T17:27:32;13.20;99.90
18073;DHT22;9161;47.348;9.648;2023-05-17T17:32:35;13.00;99.90
18073;DHT22;9161;47.348;9.648;2023-05-17T17:37:39;13.00;99.90
18073;DHT22;9161;47.348;9.648;2023-05-17T17:42:43;13.00;99.90
18073;DHT22;9161;47.348;9.648;2023-05-17T17:47:47;12.90;99.90
18073;DHT22;9161;47.348;9.648;2023-05-17T17:52:51;12.90;99.90
18073;DHT22;9161;47.348;9.648;2023-05-17T17:57:55;12.80;99.90
18073;DHT22;9161;47.348;9.648;2023-05-17T18:02:58;12.80;99.90
18073;DHT22;9161;47.348;9.648;2023-05-17T18:08:02;12.50;99.90
18073;DHT22;9161;47.348;9.648;2023-05-17T18:13:09;12.50;99.90
18073;DHT22;9161;47.348;9.648;2023-05-17T18:18:12;12.50;99.90
18073;DHT22;9161;47.348;9.648;2023-05-17T18:23:16;12.30;99.90
18073;DHT22;9161;47.348;9.648;2023-05-17T18:28:20;12.10;99.90
18073;DHT22;9161;47.348;9.648;2023-05-17T18:33:41;12.00;99.90
18073;DHT22;9161;47.348;9.648;2023-05-17T18:38:44;11.80;99.90
18073;DHT22;9161;47.348;9.648;2023-05-17T18:43:49;11.70;99.90
18073;DHT22;9161;47.348;9.648;2023-05-17T18:48:52;11.60;99.90
18073;DHT22;9161;47.348;9.648;2023-05-17T18:53:55;11.40;99.90
18073;DHT22;9161;47.348;9.648;2023-05-17T18:58:59;11.30;99.90
18073;DHT22;9161;47.348;9.648;2023-05-17T19:04:03;11.30;99.90
18073;DHT22;9161;47.348;9.648;2023-05-17T19:09:06;11.20;99.90
18073;DHT22;9161;47.348;9.648;2023-05-17T19:14:11;11.10;99.90
18073;DHT22;9161;47.348;9.648;2023-05-17T19:19:15;10.90;99.90
18073;DHT22;9161;47.348;9.648;2023-05-17T19:24:17;10.90;99.90
18073;DHT22;9161;47.348;9.648;2023-05-17T19:29:21;10.90;99.90
18073;DHT22;9161;47.348;9.648;2023-05-17T19:34:25;10.70;99.90
18073;DHT22;9161;47.348;9.648;2023-05-17T19:39:28;10.70;99.90
18073;DHT22;9161;47.348;9.648;2023-05-17T19:44:32;10.60;99.90
18073;DHT22;9161;47.348;9.648;2023-05-17T19:49:35;10.60;99.90
18073;DHT22;9161;47.348;9.648;2023-05-17T19:54:38;10.50;99.90
18073;DHT22;9161;47.348;9.648;2023-05-17T19:59:42;10.50;99.90
18073;DHT22;9161;47.348;9.648;2023-05-17T20:04:45;10.50;99.90
18073;DHT22;9161;47.348;9.648;2023-05-17T20:09:50;10.60;99.90
18073;DHT22;9161;47.348;9.648;2023-05-17T20:14:57;10.60;99.90
18073;DHT22;9161;47.348;9.648;2023-05-17T20:20:07;10.60;99.90
18073;DHT22;9161;47.348;9.648;2023-05-17T20:25:10;10.60;99.90
18073;DHT22;9161;47.348;9.648;2023-05-17T20:30:15;10.50;99.90
18073;DHT22;9161;47.348;9.648;2023-05-17T20:35:18;10.60;99.90
18073;DHT22;9161;47.348;9.648;2023-05-17T20:40:22;10.60;99.90
18073;DHT22;9161;47.348;9.648;2023-05-17T20:45:27;10.50;99.90
18073;DHT22;9161;47.348;9.648;2023-05-17T20:50:30;10.50;99.90
18073;DHT22;9161;47.348;9.648;2023-05-17T20:55:34;10.50;99.90
18073;DHT22;9161;47.348;9.648;2023-05-17T21:00:38;10.60;99.90
18073;DHT22;9161;47.348;9.648;2023-05-17T21:05:41;10.50;99.90
18073;DHT22;9161;47.348;9.648;2023-05-17T21:10:43;10.50;99.90
18073;DHT22;9161;47.348;9.648;2023-05-17T21:15:47;10.50;99.90
18073;DHT22;9161;47.348;9.648;2023-05-17T21:20:49;10.50;99.90
18073;DHT22;9161;47.348;9.648;2023-05-17T21:25:54;10.40;99.90
18073;DHT22;9161;47.348;9.648;2023-05-17T21:30:58;10.40;99.90
18073;DHT22;9161;47.348;9.648;2023-05-17T21:36:00;10.30;99.90
18073;DHT22;9161;47.348;9.648;2023-05-17T21:41:02;10.30;99.90
18073;DHT22;9161;47.348;9.648;2023-05-17T21:46:06;10.30;99.90
18073;DHT22;9161;47.348;9.648;2023-05-17T21:51:08;10.20;99.90
18073;DHT22;9161;47.348;9.648;2023-05-17T21:56:10;10.10;99.90
18073;DHT22;9161;47.348;9.648;2023-05-17T22:01:14;10.00;99.90
18073;DHT22;9161;47.348;9.648;2023-05-17T22:06:19;10.00;99.90
18073;DHT22;9161;47.348;9.648;2023-05-17T22:11:23;9.90;99.90
18073;DHT22;9161;47.348;9.648;2023-05-17T22:16:27;9.90;99.90
18073;DHT22;9161;47.348;9.648;2023-05-17T22:21:32;9.80;99.90
18073;DHT22;9161;47.348;9.648;2023-05-17T22:26:35;9.90;99.90
18073;DHT22;9161;47.348;9.648;2023-05-17T22:31:38;9.90;99.90
18073;DHT22;9161;47.348;9.648;2023-05-17T22:36:42;9.90;99.90
18073;DHT22;9161;47.348;9.648;2023-05-17T22:41:45;9.80;99.90
18073;DHT22;9161;47.348;9.648;2023-05-17T22:46:48;9.80;99.90
18073;DHT22;9161;47.348;9.648;2023-05-17T22:51:51;9.80;99.90
18073;DHT22;9161;47.348;9.648;2023-05-17T22:56:58;9.70;99.90
18073;DHT22;9161;47.348;9.648;2023-05-17T23:02:06;9.60;99.90
18073;DHT22;9161;47.348;9.648;2023-05-17T23:07:08;9.50;99.90
18073;DHT22;9161;47.348;9.648;2023-05-17T23:12:10;9.40;99.90
18073;DHT22;9161;47.348;9.648;2023-05-17T23:17:15;9.30;99.90
18073;DHT22;9161;47.348;9.648;2023-05-17T23:22:17;9.20;99.90
18073;DHT22;9161;47.348;9.648;2023-05-17T23:27:19;9.30;99.90
18073;DHT22;9161;47.348;9.648;2023-05-17T23:32:23;9.30;99.90
18073;DHT22;9161;47.348;9.648;2023-05-17T23:37:25;9.30;99.90
18073;DHT22;9161;47.348;9.648;2023-05-17T23:42:27;9.30;99.90
18073;DHT22;9161;47.348;9.648;2023-05-17T23:47:31;9.30;99.90
18073;DHT22;9161;47.348;9.648;2023-05-17T23:52:34;9.20;99.90
18073;DHT22;9161;47.348;9.648;2023-05-17T23:57:38;9.10;99.90
